createdAt,value
2017-09-22T00:01:22.646Z,100526.02
2017-09-22T00:04:24.083Z,100523.64
2017-09-22T00:07:25.495Z,100516.13
2017-09-22T00:10:27.749Z,100522.41
2017-09-22T00:13:29.257Z,100521.13
2017-09-22T00:16:30.713Z,100524.71
2017-09-22T00:19:32.126Z,100520.42
2017-09-22T00:22:34.323Z,100520.78
2017-09-22T00:25:35.791Z,100514.28
2017-09-22T00:28:37.340Z,100515.18
2017-09-22T00:31:39.007Z,100520.52
2017-09-22T00:34:40.494Z,100513.00
2017-09-22T00:37:42.022Z,100510.64
2017-09-22T00:40:43.509Z,100509.98
2017-09-22T00:43:45.069Z,100502.49
2017-09-22T00:46:47.351Z,100508.72
2017-09-22T00:49:49.721Z,100503.97
2017-09-22T00:52:51.946Z,100503.31
2017-09-22T00:55:53.453Z,100500.13
2017-09-22T00:58:55.292Z,100501.11
2017-09-22T01:01:56.784Z,100492.73
2017-09-22T01:04:58.293Z,100495.23
2017-09-22T01:07:59.717Z,100490.41
2017-09-22T01:11:01.142Z,100491.37
2017-09-22T01:14:02.641Z,100491.05
2017-09-22T01:17:04.187Z,100487.81
2017-09-22T01:20:05.843Z,100495.75
2017-09-22T01:23:07.333Z,100494.51
2017-09-22T01:26:09.541Z,100492.61
2017-09-22T01:29:11.055Z,100491.95
2017-09-22T01:32:12.585Z,100490.55
2017-09-22T01:35:14.034Z,100493.64
2017-09-22T01:38:15.497Z,100479.41
2017-09-22T01:41:17.393Z,100487.92
2017-09-22T01:44:19.538Z,100485.30
2017-09-22T01:47:21.046Z,100477.37
2017-09-22T01:50:22.592Z,100478.27
2017-09-22T01:53:24.068Z,100479.05
2017-09-22T01:56:25.503Z,100476.31
2017-09-22T01:59:26.974Z,100478.25
2017-09-22T02:02:28.511Z,100483.84
2017-09-22T02:05:30.040Z,100470.64
2017-09-22T02:08:31.670Z,100475.72
2017-09-22T02:11:33.938Z,100481.55
2017-09-22T02:14:35.838Z,100473.84
2017-09-22T02:17:37.257Z,100473.53
2017-09-22T02:20:38.780Z,100472.77
2017-09-22T02:23:40.263Z,100474.02
2017-09-22T02:26:41.741Z,100471.28
2017-09-22T02:29:44.091Z,100473.92
2017-09-22T02:32:46.364Z,100461.81
2017-09-22T02:35:47.971Z,100458.19
2017-09-22T02:38:49.653Z,100470.64
2017-09-22T02:41:51.264Z,100470.52
2017-09-22T02:44:53.550Z,100464.69
2017-09-22T02:47:55.009Z,100466.88
2017-09-22T02:50:56.510Z,100464.20
2017-09-22T02:53:58.023Z,100467.86
2017-09-22T03:00:08.518Z,100469.67
2017-09-22T03:03:10.201Z,100459.56
2017-09-22T03:06:11.657Z,100463.77
2017-09-22T03:09:13.372Z,100456.28
2017-09-22T03:12:14.833Z,100459.70
2017-09-22T03:15:16.325Z,100460.66
2017-09-22T03:18:17.803Z,100458.48
2017-09-22T03:21:19.959Z,100452.81
2017-09-22T03:24:22.105Z,100453.03
2017-09-22T03:27:23.625Z,100457.91
2017-09-22T03:30:25.217Z,100463.24
2017-09-22T03:33:27.384Z,100464.00
2017-09-22T03:36:29.035Z,100459.27
2017-09-22T03:39:30.512Z,100466.73
2017-09-22T03:42:32.013Z,100459.02
2017-09-22T03:45:33.424Z,100465.98
2017-09-22T03:48:35.610Z,100468.48
2017-09-22T03:51:37.094Z,100463.59
2017-09-22T03:54:38.574Z,100468.45
2017-09-22T03:57:40.434Z,100476.14
2017-09-22T04:00:41.885Z,100470.93
2017-09-22T04:03:43.453Z,100470.81
2017-09-22T04:06:44.974Z,100470.39
2017-09-22T04:09:46.461Z,100473.53
2017-09-22T04:12:47.943Z,100462.26
2017-09-22T04:15:49.447Z,100470.36
2017-09-22T04:18:50.896Z,100462.07
2017-09-22T04:21:52.346Z,100463.16
2017-09-22T04:24:53.854Z,100466.12
2017-09-22T04:27:55.409Z,100462.06
2017-09-22T04:30:57.000Z,100461.22
2017-09-22T04:33:58.510Z,100462.76
2017-09-22T04:37:01.215Z,100461.67
2017-09-22T04:40:02.735Z,100461.72
2017-09-22T04:43:04.202Z,100466.86
2017-09-22T04:46:05.683Z,100467.94
2017-09-22T04:49:07.236Z,100466.77
2017-09-22T04:52:08.976Z,100469.83
2017-09-22T04:55:10.465Z,100469.78
2017-09-22T04:58:12.293Z,100476.55
2017-09-22T05:01:13.732Z,100478.23
2017-09-22T05:04:15.962Z,100475.84
2017-09-22T05:07:17.545Z,100474.86
2017-09-22T05:10:19.816Z,100484.87
2017-09-22T05:13:21.248Z,100474.10
2017-09-22T05:16:22.912Z,100480.23
2017-09-22T05:19:24.553Z,100481.06
2017-09-22T05:22:25.981Z,100483.58
2017-09-22T05:25:28.546Z,100483.58
2017-09-22T05:28:30.057Z,100484.69
2017-09-22T05:31:32.322Z,100481.37
2017-09-22T05:34:34.550Z,100489.16
2017-09-22T05:37:36.096Z,100482.59
2017-09-22T05:40:37.570Z,100474.67
2017-09-22T05:43:39.095Z,100486.95
2017-09-22T05:46:40.568Z,100502.34
2017-09-22T05:49:42.251Z,100495.92
2017-09-22T05:52:44.564Z,100497.45
2017-09-22T05:55:45.997Z,100498.19
2017-09-22T05:58:48.350Z,100498.75
2017-09-22T06:01:49.908Z,100496.56
2017-09-22T06:04:51.477Z,100498.03
2017-09-22T06:07:53.902Z,100502.06
2017-09-22T06:10:55.358Z,100494.53
2017-09-22T06:13:57.022Z,100499.00
2017-09-22T06:16:58.603Z,100495.27
2017-09-22T06:20:00.308Z,100501.99
2017-09-22T06:23:01.785Z,100499.33
2017-09-22T06:26:03.424Z,100502.59
2017-09-22T06:29:04.979Z,100507.92
2017-09-22T06:32:06.454Z,100517.64
2017-09-22T06:35:07.911Z,100513.05
2017-09-22T06:38:09.459Z,100510.02
2017-09-22T06:41:11.163Z,100519.50
2017-09-22T06:44:14.363Z,100520.46
2017-09-22T06:47:15.831Z,100520.62
2017-09-22T06:50:17.296Z,100533.52
2017-09-22T06:53:18.786Z,100525.81
2017-09-22T06:56:20.206Z,100538.16
2017-09-22T06:59:21.680Z,100531.42
2017-09-22T07:02:23.018Z,100536.92
2017-09-22T07:05:24.409Z,100528.75
2017-09-22T07:08:25.798Z,100538.06
2017-09-22T07:11:27.277Z,100529.89
2017-09-22T07:14:28.784Z,100543.32
2017-09-22T07:17:30.992Z,100545.36
2017-09-22T07:20:32.400Z,100545.34
2017-09-22T07:23:33.785Z,100555.38
2017-09-22T07:26:35.246Z,100558.80
2017-09-22T07:29:36.679Z,100556.50
2017-09-22T07:32:38.088Z,100551.08
2017-09-22T07:35:39.513Z,100551.35
2017-09-22T07:38:41.058Z,100547.70
2017-09-22T07:41:42.589Z,100557.98
2017-09-22T07:44:44.776Z,100563.95
2017-09-22T07:47:46.263Z,100555.67
2017-09-22T07:50:47.636Z,100562.16
2017-09-22T07:53:49.118Z,100560.30
2017-09-22T07:56:51.278Z,100555.18
2017-09-22T07:59:53.807Z,100559.75
2017-09-22T08:02:55.288Z,100556.98
2017-09-22T08:05:56.704Z,100564.30
2017-09-22T08:08:58.126Z,100561.32
2017-09-22T08:11:59.543Z,100567.09
2017-09-22T08:15:00.951Z,100560.87
2017-09-22T08:18:02.419Z,100558.39
2017-09-22T08:21:03.867Z,100565.38
2017-09-22T08:24:05.257Z,100569.43
2017-09-22T08:27:06.676Z,100573.16
2017-09-22T08:30:08.249Z,100580.11
2017-09-22T08:33:09.822Z,100571.52
2017-09-22T08:36:11.396Z,100568.56
2017-09-22T08:39:14.249Z,100568.92
2017-09-22T08:42:17.878Z,100569.64
2017-09-22T08:45:19.347Z,100567.64
2017-09-22T08:48:20.871Z,100560.05
2017-09-22T08:51:22.292Z,100565.34
2017-09-22T08:54:23.799Z,100569.62
2017-09-22T08:57:26.048Z,100566.03
2017-09-22T09:00:27.473Z,100569.73
2017-09-22T09:07:01.932Z,100564.20
2017-09-22T09:10:03.386Z,100564.14
2017-09-22T09:13:04.769Z,100566.02
2017-09-22T09:16:06.955Z,100566.67
2017-09-22T09:19:08.521Z,100563.31
2017-09-22T09:22:09.967Z,100563.88
2017-09-22T09:25:11.540Z,100560.05
2017-09-22T09:28:13.045Z,100566.03
2017-09-22T09:31:14.518Z,100561.29
2017-09-22T09:34:16.644Z,100559.91
2017-09-22T09:37:18.059Z,100550.66
2017-09-22T09:40:19.570Z,100554.02
2017-09-22T09:43:21.799Z,100554.52
2017-09-22T09:46:23.198Z,100563.20
2017-09-22T09:49:25.415Z,100560.57
2017-09-22T09:52:26.867Z,100567.49
2017-09-22T09:55:28.356Z,100575.48
2017-09-22T09:58:29.890Z,100567.80
2017-09-22T10:01:31.362Z,100574.14
2017-09-22T10:04:32.857Z,100561.48
2017-09-22T10:07:34.345Z,100565.35
2017-09-22T10:10:35.857Z,100562.59
2017-09-22T10:13:38.071Z,100566.19
2017-09-22T10:16:39.516Z,100563.13
2017-09-22T10:19:40.943Z,100555.21
2017-09-22T10:22:42.420Z,100555.12
2017-09-22T10:25:44.398Z,100548.83
2017-09-22T10:28:46.118Z,100548.27
2017-09-22T10:31:47.994Z,100544.15
2017-09-22T10:34:49.841Z,100538.13
2017-09-22T10:37:52.167Z,100537.50
2017-09-22T10:40:53.627Z,100548.44
2017-09-22T10:43:55.928Z,100545.70
2017-09-22T10:46:57.492Z,100548.14
2017-09-22T10:49:59.052Z,100557.36
2017-09-22T10:53:00.701Z,100552.85
2017-09-22T10:56:02.162Z,100564.58
2017-09-22T10:59:03.630Z,100560.98
2017-09-22T11:02:05.131Z,100566.52
2017-09-22T11:05:07.385Z,100563.64
2017-09-22T11:08:08.975Z,100559.77
2017-09-22T11:11:11.222Z,100574.34
2017-09-22T11:14:12.762Z,100568.31
2017-09-22T11:17:14.249Z,100576.81
2017-09-22T11:20:16.402Z,100575.55
2017-09-22T11:23:17.863Z,100574.40
2017-09-22T11:26:19.363Z,100571.14
2017-09-22T11:29:20.804Z,100569.70
2017-09-22T11:32:22.300Z,100569.47
2017-09-22T11:35:23.752Z,100563.02
2017-09-22T11:38:25.401Z,100565.13
2017-09-22T11:41:26.851Z,100563.32
2017-09-22T11:44:28.423Z,100569.44
2017-09-22T11:47:29.888Z,100572.66
2017-09-22T11:50:31.370Z,100568.08
2017-09-22T11:53:32.884Z,100562.55
2017-09-22T11:56:34.413Z,100564.97
2017-09-22T11:59:35.833Z,100565.84
2017-09-22T12:02:37.230Z,100561.79
2017-09-22T12:05:38.834Z,100566.50
2017-09-22T12:08:41.085Z,100552.46
2017-09-22T12:11:43.438Z,100554.24
2017-09-22T12:14:44.948Z,100555.81
2017-09-22T12:17:46.468Z,100561.11
2017-09-22T12:20:48.553Z,100557.16
2017-09-22T12:23:50.167Z,100562.02
2017-09-22T12:26:51.659Z,100560.88
2017-09-22T12:29:53.850Z,100561.36
2017-09-22T12:32:55.572Z,100559.86
2017-09-22T12:35:57.149Z,100561.05
2017-09-22T12:38:58.692Z,100561.10
2017-09-22T12:42:00.149Z,100553.78
2017-09-22T12:45:01.578Z,100557.03
2017-09-22T12:48:03.013Z,100563.91
2017-09-22T12:51:05.722Z,100559.56
2017-09-22T12:54:07.068Z,100558.68
2017-09-22T12:57:08.402Z,100555.22
2017-09-22T13:00:09.756Z,100553.41
2017-09-22T13:03:11.083Z,100560.65
2017-09-22T13:06:13.115Z,100557.07
2017-09-22T13:09:14.423Z,100568.02
2017-09-22T13:12:17.324Z,100570.30
2017-09-22T13:15:18.691Z,100574.51
2017-09-22T13:18:20.044Z,100565.98
2017-09-22T13:21:21.340Z,100575.72
2017-09-22T13:24:23.443Z,100571.27
2017-09-22T13:27:24.815Z,100581.77
2017-09-22T13:30:26.156Z,100570.98
2017-09-22T13:33:27.439Z,100570.86
2017-09-22T13:36:28.725Z,100579.70
2017-09-22T13:39:30.039Z,100577.95
2017-09-22T13:42:31.292Z,100570.08
2017-09-22T13:45:32.714Z,100568.41
2017-09-22T13:48:34.023Z,100573.08
2017-09-22T13:51:35.369Z,100580.97
2017-09-22T13:54:36.730Z,100574.16
2017-09-22T13:57:38.003Z,100575.97
2017-09-22T14:00:39.286Z,100576.72
2017-09-22T14:03:40.591Z,100579.30
2017-09-22T14:06:41.862Z,100574.86
2017-09-22T14:09:43.164Z,100576.22
2017-09-22T14:12:44.435Z,100581.64
2017-09-22T14:15:45.873Z,100587.78
2017-09-22T14:18:47.202Z,100576.37
2017-09-22T14:21:49.244Z,100578.95
2017-09-22T14:24:50.655Z,100582.09
2017-09-22T14:27:51.943Z,100574.22
2017-09-22T14:30:53.470Z,100572.85
2017-09-22T14:33:54.743Z,100573.17
2017-09-22T14:36:56.031Z,100577.23
2017-09-22T14:39:57.287Z,100577.66
2017-09-22T14:42:58.583Z,100576.19
2017-09-22T14:45:59.948Z,100585.82
2017-09-22T14:49:02.469Z,100591.36
2017-09-22T14:52:04.292Z,100587.94
2017-09-22T14:55:06.377Z,100581.19
2017-09-22T14:58:08.448Z,100585.34
2017-09-22T15:01:09.760Z,100586.75
2017-09-22T15:04:11.070Z,100582.98
2017-09-22T15:07:12.408Z,100584.79
2017-09-22T15:10:13.728Z,100587.08
2017-09-22T15:13:16.284Z,100588.17
2017-09-22T15:16:18.338Z,100581.92
2017-09-22T15:19:20.565Z,100589.73
2017-09-22T15:22:21.895Z,100596.48
2017-09-22T15:25:23.980Z,100588.92
2017-09-22T15:28:25.336Z,100587.69
2017-09-22T15:31:26.852Z,100593.47
2017-09-22T15:34:28.935Z,100599.13
2017-09-22T15:37:31.167Z,100596.30
2017-09-22T15:40:33.223Z,100597.50
2017-09-22T15:43:34.508Z,100599.20
2017-09-22T15:46:35.849Z,100599.13
2017-09-22T15:49:37.228Z,100600.63
2017-09-22T15:52:39.456Z,100595.83
2017-09-22T15:55:40.936Z,100602.73
2017-09-22T15:58:42.279Z,100598.41
2017-09-22T16:01:43.678Z,100603.64
2017-09-22T16:04:44.966Z,100609.23
2017-09-22T16:07:47.063Z,100609.16
2017-09-22T16:10:49.084Z,100609.19
2017-09-22T16:13:50.534Z,100610.64
2017-09-22T16:16:51.840Z,100616.13
2017-09-22T16:19:53.918Z,100615.13
2017-09-22T16:22:55.254Z,100616.21
2017-09-22T16:25:57.335Z,100617.31
2017-09-22T16:28:58.575Z,100615.30
2017-09-22T16:31:59.879Z,100617.94
2017-09-22T16:35:01.881Z,100619.86
2017-09-22T16:38:04.147Z,100620.71
2017-09-22T16:41:05.788Z,100626.97
2017-09-22T16:44:07.187Z,100622.52
2017-09-22T16:47:08.569Z,100620.13
2017-09-22T16:50:09.961Z,100623.45
2017-09-22T16:53:11.335Z,100623.48
2017-09-22T16:56:12.686Z,100630.64
2017-09-22T16:59:14.137Z,100632.98
2017-09-22T17:02:15.792Z,100640.47
2017-09-22T17:05:17.150Z,100630.30
2017-09-22T17:08:18.571Z,100640.50
2017-09-22T17:11:20.936Z,100631.54
2017-09-22T17:14:23.030Z,100636.64
2017-09-22T17:17:24.313Z,100640.33
2017-09-22T17:20:25.623Z,100639.38
2017-09-22T17:23:26.915Z,100642.30
2017-09-22T17:26:28.232Z,100641.25
2017-09-22T17:29:29.675Z,100651.06
2017-09-22T17:32:30.977Z,100645.16
2017-09-22T17:35:32.275Z,100657.55
2017-09-22T17:38:33.628Z,100658.16
2017-09-22T17:41:34.960Z,100667.73
2017-09-22T17:44:36.976Z,100667.55
2017-09-22T17:47:38.283Z,100675.69
2017-09-22T17:50:41.403Z,100669.73
2017-09-22T17:53:43.202Z,100675.88
2017-09-22T17:56:44.903Z,100681.74
2017-09-22T17:59:46.251Z,100677.75
2017-09-22T18:02:47.587Z,100682.69
2017-09-22T18:05:49.617Z,100685.55
2017-09-22T18:08:51.622Z,100699.20
2017-09-22T18:11:53.674Z,100697.23
2017-09-22T18:14:54.959Z,100700.34
2017-09-22T18:17:56.390Z,100698.80
2017-09-22T18:20:58.471Z,100705.02
2017-09-22T18:23:59.899Z,100709.28
2017-09-22T18:27:01.163Z,100716.45
2017-09-22T18:30:02.527Z,100709.05
2017-09-22T18:33:03.891Z,100707.95
2017-09-22T18:36:05.957Z,100715.72
2017-09-22T18:39:08.236Z,100716.62
2017-09-22T18:42:10.275Z,100726.12
2017-09-22T18:45:11.755Z,100718.48
2017-09-22T18:48:13.816Z,100718.02
2017-09-22T18:51:15.881Z,100717.70
2017-09-22T18:54:17.932Z,100725.04
2017-09-22T18:57:19.212Z,100725.86
2017-09-22T19:00:20.585Z,100729.47
2017-09-22T19:03:22.112Z,100731.66
2017-09-22T19:06:24.178Z,100731.66
2017-09-22T19:09:28.395Z,100725.97
2017-09-22T19:12:31.858Z,100728.41
2017-09-22T19:15:33.236Z,100729.26
2017-09-22T19:18:35.532Z,100743.36
2017-09-22T19:21:37.240Z,100735.58
2017-09-22T19:24:39.644Z,100741.59
2017-09-22T19:27:41.687Z,100737.84
2017-09-22T19:30:43.113Z,100746.02
2017-09-22T19:33:45.786Z,100752.14
2017-09-22T19:36:47.576Z,100751.45
2017-09-22T19:39:50.319Z,100749.17
2017-09-22T19:42:53.120Z,100754.03
2017-09-22T19:45:55.356Z,100751.98
2017-09-22T19:48:57.937Z,100752.95
2017-09-22T19:51:59.491Z,100749.90
2017-09-22T19:55:03.550Z,100750.80
2017-09-22T19:58:07.682Z,100748.49
2017-09-22T20:01:10.167Z,100747.33
2017-09-22T20:04:11.690Z,100747.88
2017-09-22T20:07:14.268Z,100751.23
2017-09-22T20:10:17.699Z,100755.89
2017-09-22T20:13:20.785Z,100754.81
2017-09-22T20:16:23.220Z,100760.88
2017-09-22T20:19:25.304Z,100760.70
2017-09-22T20:22:26.880Z,100763.29
2017-09-22T20:25:28.635Z,100758.72
2017-09-22T20:28:29.964Z,100766.50
2017-09-22T20:31:31.318Z,100769.95
2017-09-22T20:34:32.608Z,100771.22
2017-09-22T20:37:33.957Z,100775.67
2017-09-22T20:40:35.653Z,100780.70
2017-09-22T20:43:37.006Z,100785.54
2017-09-22T20:46:39.041Z,100781.58
2017-09-22T20:49:40.500Z,100784.21
2017-09-22T20:52:41.776Z,100789.78
2017-09-22T20:55:43.936Z,100785.16
2017-09-22T20:58:45.972Z,100793.28
2017-09-22T21:01:47.246Z,100786.67
2017-09-22T21:04:48.543Z,100792.44
2017-09-22T21:07:49.862Z,100792.66
2017-09-22T21:10:51.970Z,100803.09
2017-09-22T21:13:53.245Z,100801.45
2017-09-22T21:16:54.507Z,100800.55
2017-09-22T21:19:55.770Z,100806.16
2017-09-22T21:22:57.780Z,100804.95
2017-09-22T21:25:59.071Z,100802.10
2017-09-22T21:29:00.487Z,100811.26
2017-09-22T21:32:01.795Z,100803.88
2017-09-22T21:35:03.801Z,100803.47
2017-09-22T21:38:05.189Z,100807.45
2017-09-22T21:41:07.206Z,100795.09
2017-09-22T21:44:08.520Z,100806.36
2017-09-22T21:47:10.581Z,100798.06
2017-09-22T21:50:12.671Z,100800.47
2017-09-22T21:53:14.112Z,100804.02
2017-09-22T21:56:16.261Z,100806.37
2017-09-22T21:59:18.037Z,100794.56
2017-09-22T22:02:20.157Z,100800.25
2017-09-22T22:05:27.538Z,100796.09
2017-09-22T22:08:28.912Z,100802.38
2017-09-22T22:11:30.252Z,100801.42
2017-09-22T22:14:31.716Z,100804.79
2017-09-22T22:17:33.012Z,100800.48
2017-09-22T22:20:34.421Z,100797.00
2017-09-22T22:23:35.767Z,100799.11
2017-09-22T22:26:37.120Z,100801.12
2017-09-22T22:29:38.467Z,100801.67
2017-09-22T22:32:39.791Z,100797.68
2017-09-22T22:35:41.115Z,100802.05
2017-09-22T22:38:42.505Z,100799.57
2017-09-22T22:41:44.553Z,100805.39
2017-09-22T22:44:45.895Z,100803.67
2017-09-22T22:47:47.243Z,100802.38
2017-09-22T22:50:48.594Z,100803.64
2017-09-22T22:53:49.989Z,100808.19
2017-09-22T22:56:51.461Z,100811.45
2017-09-22T22:59:52.894Z,100812.11
2017-09-22T23:02:54.216Z,100819.30
2017-09-22T23:05:55.595Z,100814.73
2017-09-22T23:08:56.903Z,100824.66
2017-09-22T23:11:58.238Z,100821.45
2017-09-22T23:14:59.556Z,100825.50
2017-09-22T23:18:00.910Z,100825.86
2017-09-22T23:21:02.402Z,100825.46
2017-09-22T23:24:03.740Z,100829.31
2017-09-22T23:27:05.085Z,100824.98
2017-09-22T23:30:07.161Z,100822.33
2017-09-22T23:33:08.494Z,100831.02
2017-09-22T23:36:17.439Z,100823.98
2017-09-22T23:39:18.778Z,100823.98
2017-09-22T23:42:20.890Z,100826.34
2017-09-22T23:45:22.208Z,100827.23
2017-09-22T23:48:23.659Z,100824.56
2017-09-22T23:51:24.970Z,100829.97
2017-09-22T23:54:26.343Z,100826.44
2017-09-22T23:57:28.400Z,100823.92
